Time;durP1;ratioP1;P1;durP2;ratioP2;P2;SDS_P1;SDS_P2;PMS_P1;PMS_P2;Temp;Humidity;BMP_temperature;BMP_pressure;BME280_temperature;BME280_humidity;BME280_pressure;Samples;Min_cycle;Max_cycle;Signal;HPM_P1;HPM_P2
2023/05/11 00:01:23;;;;;;;32.08;12.82;;;;;;;;;;5027610;28;20075;-69
2023/05/11 00:03:48;;;;;;;28.02;13.18;;;;;;;;;;5030989;28;20021;-69
2023/05/11 00:06:13;;;;;;;50.17;14.03;;;;;;;;;;5039915;28;20456;-69
2023/05/11 00:08:38;;;;;;;30.43;13.57;;;;;;;;;;5035908;28;20271;-69
2023/05/11 00:11:06;;;;;;;27.13;12.77;;;;;;;;;;5036577;28;20283;-69
2023/05/11 00:13:31;;;;;;;30.73;13.95;;;;;;;;;;5032494;28;20283;-69
2023/05/11 00:15:56;;;;;;;28.33;12.70;;;;;;;;;;5030683;28;20017;-69
2023/05/11 00:18:21;;;;;;;28.73;12.80;;;;;;;;;;5034207;28;20024;-69
2023/05/11 00:20:47;;;;;;;25.40;12.77;;;;;;;;;;5035266;28;20226;-69
2023/05/11 00:23:12;;;;;;;28.43;13.50;;;;;;;;;;5035799;28;20267;-69
2023/05/11 00:25:38;;;;;;;23.27;13.03;;;;;;;;;;5038704;28;20271;-69
2023/05/11 00:28:03;;;;;;;24.27;12.00;;;;;;;;;;5032586;28;20405;-69
2023/05/11 00:30:28;;;;;;;21.40;10.38;;;;;;;;;;5024720;28;20030;-69
2023/05/11 00:32:53;;;;;;;17.43;9.50;;;;;;;;;;5025246;28;20039;-69
2023/05/11 00:35:18;;;;;;;18.57;8.10;;;;;;;;;;5037092;28;20681;-69
2023/05/11 00:37:44;;;;;;;14.88;8.32;;;;;;;;;;5033188;28;20399;-69
2023/05/11 00:40:09;;;;;;;16.02;9.30;;;;;;;;;;5034708;28;20104;-68
2023/05/11 00:42:35;;;;;;;20.48;9.05;;;;;;;;;;5020627;28;20018;-69
2023/05/11 00:45:00;;;;;;;20.60;10.77;;;;;;;;;;5036327;28;20026;-69
2023/05/11 00:47:25;;;;;;;16.95;10.93;;;;;;;;;;5032750;28;20040;-69
2023/05/11 00:49:52;;;;;;;28.33;12.07;;;;;;;;;;5021833;28;20089;-69
2023/05/11 00:52:17;;;;;;;22.33;12.85;;;;;;;;;;5022778;28;20153;-68
2023/05/11 00:54:42;;;;;;;17.33;9.68;;;;;;;;;;5023781;28;20527;-69
2023/05/11 00:57:07;;;;;;;19.33;8.45;;;;;;;;;;5020437;28;20022;-69
2023/05/11 00:59:33;;;;;;;17.60;5.97;;;;;;;;;;5030027;28;20021;-69
2023/05/11 01:01:59;;;;;;;9.23;4.95;;;;;;;;;;5033742;28;20358;-69
2023/05/11 01:04:24;;;;;;;15.23;5.93;;;;;;;;;;5031610;28;20079;-69
2023/05/11 01:07:08;;;;;;;7.15;3.60;;;;;;;;;;5021375;28;20636;-69
2023/05/11 01:09:54;;;;;;;7.00;3.35;;;;;;;;;;5021883;28;20029;-69
2023/05/11 01:12:34;;;;;;;6.00;3.08;;;;;;;;;;5015723;28;20065;-69
2023/05/11 01:15:04;;;;;;;7.78;3.10;;;;;;;;;;5018346;28;20376;-69
2023/05/11 01:17:34;;;;;;;5.07;2.75;;;;;;;;;;5019526;28;20402;-69
2023/05/11 01:20:06;;;;;;;6.88;2.80;;;;;;;;;;5017511;28;20018;-69
2023/05/11 01:22:43;;;;;;;5.10;2.60;;;;;;;;;;5016793;28;20406;-69
2023/05/11 01:25:21;;;;;;;5.68;3.00;;;;;;;;;;5023072;28;20028;-69
2023/05/11 01:28:05;;;;;;;7.45;4.28;;;;;;;;;;5021352;28;20057;-69
2023/05/11 01:30:47;;;;;;;8.23;4.45;;;;;;;;;;5015049;28;20033;-69
2023/05/11 01:33:13;;;;;;;8.45;4.88;;;;;;;;;;5024314;28;20021;-69
2023/05/11 01:35:42;;;;;;;8.27;4.72;;;;;;;;;;5031406;28;20029;-69
2023/05/11 01:38:10;;;;;;;9.27;4.80;;;;;;;;;;5032193;28;20029;-68
2023/05/11 01:40:36;;;;;;;9.65;4.90;;;;;;;;;;5026087;28;20026;-69
2023/05/11 01:43:06;;;;;;;14.90;5.80;;;;;;;;;;5030911;28;20025;-70
2023/05/11 01:45:33;;;;;;;16.25;7.25;;;;;;;;;;5024042;28;20497;-70
2023/05/11 01:48:01;;;;;;;10.95;6.18;;;;;;;;;;5029667;28;20360;-70
2023/05/11 01:50:27;;;;;;;14.18;7.25;;;;;;;;;;5030661;28;20736;-69
2023/05/11 01:52:52;;;;;;;14.20;8.05;;;;;;;;;;5030276;28;20029;-69
2023/05/11 01:55:20;;;;;;;13.50;7.32;;;;;;;;;;5029161;28;20026;-69
2023/05/11 01:57:46;;;;;;;17.48;8.93;;;;;;;;;;5027262;28;20022;-69
2023/05/11 02:00:11;;;;;;;15.82;8.23;;;;;;;;;;5030879;28;20025;-69
2023/05/11 02:02:37;;;;;;;21.63;9.52;;;;;;;;;;5031985;28;20036;-69
2023/05/11 02:05:03;;;;;;;22.80;9.93;;;;;;;;;;5030251;28;20013;-69
2023/05/11 02:07:29;;;;;;;32.20;11.10;;;;;;;;;;5032512;28;20108;-69
2023/05/11 02:09:55;;;;;;;40.13;11.73;;;;;;;;;;5034348;28;20025;-69
2023/05/11 02:12:21;;;;;;;20.92;10.48;;;;;;;;;;5031076;28;20034;-69
2023/05/11 02:14:47;;;;;;;28.42;12.20;;;;;;;;;;5031057;28;20033;-69
2023/05/11 02:17:15;;;;;;;27.25;10.88;;;;;;;;;;5031776;28;20104;-69
2023/05/11 02:19:40;;;;;;;28.10;11.38;;;;;;;;;;5032073;28;20036;-69
2023/05/11 02:22:06;;;;;;;25.10;11.05;;;;;;;;;;5029445;28;20021;-69
2023/05/11 02:24:32;;;;;;;26.08;11.35;;;;;;;;;;5031192;28;20045;-69
2023/05/11 02:26:58;;;;;;;21.38;10.60;;;;;;;;;;5030350;28;20030;-69
2023/05/11 02:29:23;;;;;;;28.83;11.82;;;;;;;;;;5033634;28;20021;-69
2023/05/11 02:31:51;;;;;;;28.45;11.98;;;;;;;;;;5031418;28;20021;-69
2023/05/11 02:34:20;;;;;;;23.15;11.40;;;;;;;;;;5034877;28;20402;-69
2023/05/11 02:36:47;;;;;;;29.05;10.18;;;;;;;;;;5024608;28;20380;-69
2023/05/11 02:39:14;;;;;;;21.23;8.90;;;;;;;;;;5028655;28;20044;-69
2023/05/11 02:41:42;;;;;;;18.92;8.02;;;;;;;;;;5027327;28;20113;-69
2023/05/11 02:44:08;;;;;;;19.23;9.25;;;;;;;;;;5026783;28;20029;-69
2023/05/11 02:46:35;;;;;;;17.83;8.40;;;;;;;;;;5033957;28;20021;-69
2023/05/11 02:49:02;;;;;;;25.50;9.00;;;;;;;;;;5024946;28;20010;-69
2023/05/11 02:51:38;;;;;;;19.85;9.82;;;;;;;;;;5031265;28;20034;-69
2023/05/11 02:54:05;;;;;;;18.77;8.32;;;;;;;;;;5030489;28;20045;-69
2023/05/11 02:56:31;;;;;;;19.92;8.40;;;;;;;;;;5030404;28;20391;-69
2023/05/11 02:58:56;;;;;;;16.05;8.57;;;;;;;;;;5035211;28;20283;-69
2023/05/11 03:01:22;;;;;;;18.67;8.48;;;;;;;;;;5030940;28;20029;-69
2023/05/11 03:03:47;;;;;;;15.45;8.70;;;;;;;;;;5026950;28;20029;-69
2023/05/11 03:06:12;;;;;;;13.88;7.72;;;;;;;;;;5029790;28;20033;-69
2023/05/11 03:08:37;;;;;;;18.00;7.70;;;;;;;;;;5029308;28;20029;-69
2023/05/11 03:11:03;;;;;;;18.50;8.57;;;;;;;;;;5031333;28;20108;-69
2023/05/11 03:13:29;;;;;;;17.33;8.02;;;;;;;;;;5033312;28;20032;-69
2023/05/11 03:15:55;;;;;;;14.10;7.32;;;;;;;;;;5030768;28;20029;-69
2023/05/11 03:18:21;;;;;;;17.50;8.73;;;;;;;;;;5034058;28;20021;-69
2023/05/11 03:20:46;;;;;;;15.80;8.13;;;;;;;;;;5029781;28;20025;-69
2023/05/11 03:23:12;;;;;;;16.45;8.85;;;;;;;;;;5029399;28;20475;-69
2023/05/11 03:25:39;;;;;;;18.88;8.27;;;;;;;;;;5030092;28;20025;-69
2023/05/11 03:28:05;;;;;;;17.33;9.35;;;;;;;;;;5029680;28;20022;-69
2023/05/11 03:30:31;;;;;;;21.60;9.68;;;;;;;;;;5030429;28;20052;-69
2023/05/11 03:32:56;;;;;;;22.23;9.38;;;;;;;;;;5027553;28;20086;-69
2023/05/11 03:35:24;;;;;;;19.33;9.63;;;;;;;;;;5033076;28;20479;-69
2023/05/11 03:37:50;;;;;;;21.92;10.02;;;;;;;;;;5032084;28;20570;-69
2023/05/11 03:40:15;;;;;;;21.83;10.10;;;;;;;;;;5030285;28;20101;-69
2023/05/11 03:42:41;;;;;;;21.30;9.35;;;;;;;;;;5032886;28;20037;-69
2023/05/11 03:45:07;;;;;;;20.02;9.93;;;;;;;;;;5031682;28;20014;-69
2023/05/11 03:47:33;;;;;;;20.42;9.95;;;;;;;;;;5028453;28;20033;-69
2023/05/11 03:50:00;;;;;;;25.45;10.45;;;;;;;;;;5028559;28;20777;-69
2023/05/11 03:52:25;;;;;;;19.10;9.32;;;;;;;;;;5032359;28;20245;-69
2023/05/11 03:54:50;;;;;;;25.33;10.35;;;;;;;;;;5034180;28;20036;-69
2023/05/11 03:57:15;;;;;;;19.55;10.63;;;;;;;;;;5024254;28;20017;-69
2023/05/11 03:59:41;;;;;;;30.75;10.30;;;;;;;;;;5020338;28;20028;-69
2023/05/11 04:02:06;;;;;;;27.67;11.13;;;;;;;;;;5026915;28;20025;-69
2023/05/11 04:04:31;;;;;;;20.42;9.68;;;;;;;;;;5027992;28;20022;-69
2023/05/11 04:06:57;;;;;;;19.50;10.23;;;;;;;;;;5030863;28;20075;-69
2023/05/11 04:09:22;;;;;;;27.98;11.70;;;;;;;;;;5035029;28;20100;-69
2023/05/11 04:11:48;;;;;;;28.38;10.50;;;;;;;;;;5034647;28;20029;-69
2023/05/11 04:14:13;;;;;;;27.10;11.13;;;;;;;;;;5026952;28;20279;-69
2023/05/11 04:16:38;;;;;;;29.42;12.13;;;;;;;;;;5029720;28;20391;-69
2023/05/11 04:19:05;;;;;;;28.05;11.35;;;;;;;;;;5030134;28;20048;-69
2023/05/11 04:21:31;;;;;;;25.20;11.35;;;;;;;;;;5031767;28;20429;-69
2023/05/11 04:23:56;;;;;;;26.50;12.10;;;;;;;;;;5029022;28;20017;-69
2023/05/11 04:26:21;;;;;;;27.40;13.10;;;;;;;;;;5033208;28;20045;-69
2023/05/11 04:28:47;;;;;;;24.60;11.60;;;;;;;;;;5028101;28;20268;-69
2023/05/11 04:31:12;;;;;;;28.43;12.07;;;;;;;;;;5032995;28;20321;-69
2023/05/11 04:33:37;;;;;;;36.70;12.00;;;;;;;;;;5029971;28;20291;-69
2023/05/11 04:36:02;;;;;;;24.73;9.90;;;;;;;;;;5029064;28;20689;-69
2023/05/11 04:38:27;;;;;;;26.27;11.60;;;;;;;;;;5031589;28;20288;-69
2023/05/11 04:40:52;;;;;;;24.03;11.03;;;;;;;;;;5034202;28;20109;-69
2023/05/11 04:43:18;;;;;;;26.57;11.07;;;;;;;;;;5026804;28;20268;-69
2023/05/11 04:45:47;;;;;;;25.87;10.77;;;;;;;;;;5032461;28;20268;-69
2023/05/11 04:48:12;;;;;;;26.60;10.55;;;;;;;;;;5032504;28;20272;-69
2023/05/11 04:50:37;;;;;;;27.38;11.23;;;;;;;;;;5032472;28;20030;-69
2023/05/11 04:53:02;;;;;;;25.20;11.33;;;;;;;;;;5027604;28;20052;-69
2023/05/11 04:55:28;;;;;;;25.30;10.73;;;;;;;;;;5030652;28;20756;-69
2023/05/11 04:57:53;;;;;;;26.43;10.17;;;;;;;;;;5025593;28;20345;-70
2023/05/11 05:00:18;;;;;;;25.07;10.90;;;;;;;;;;5022867;28;20777;-69
2023/05/11 05:02:43;;;;;;;39.97;11.43;;;;;;;;;;5030017;28;20331;-69
2023/05/11 05:05:09;;;;;;;31.53;11.73;;;;;;;;;;5031077;28;20041;-69
2023/05/11 05:07:34;;;;;;;24.77;10.20;;;;;;;;;;5030192;28;20299;-69
2023/05/11 05:10:00;;;;;;;22.70;10.52;;;;;;;;;;5024805;28;20022;-69
2023/05/11 05:12:25;;;;;;;22.02;10.02;;;;;;;;;;5027310;28;20021;-69
2023/05/11 05:14:50;;;;;;;23.50;11.03;;;;;;;;;;5029348;28;20026;-69
2023/05/11 05:17:16;;;;;;;22.30;9.93;;;;;;;;;;5030948;28;20394;-69
2023/05/11 05:19:41;;;;;;;29.97;11.97;;;;;;;;;;5032131;28;20267;-69
2023/05/11 05:22:06;;;;;;;25.27;11.67;;;;;;;;;;5031678;28;20268;-69
2023/05/11 05:24:31;;;;;;;25.45;11.65;;;;;;;;;;5037267;28;20369;-69
2023/05/11 05:26:56;;;;;;;35.05;11.52;;;;;;;;;;5032693;28;20013;-69
2023/05/11 05:29:22;;;;;;;31.47;11.87;;;;;;;;;;5035625;28;20383;-69
2023/05/11 05:31:47;;;;;;;33.77;13.57;;;;;;;;;;5031174;28;21796;-69
2023/05/11 05:34:12;;;;;;;30.83;13.63;;;;;;;;;;5030209;28;20384;-69
2023/05/11 05:36:38;;;;;;;33.40;14.30;;;;;;;;;;5035544;28;20741;-69
2023/05/11 05:39:07;;;;;;;37.42;14.32;;;;;;;;;;5033819;28;20331;-69
2023/05/11 05:41:32;;;;;;;43.33;16.63;;;;;;;;;;5033827;28;20096;-68
2023/05/11 05:43:57;;;;;;;45.37;17.37;;;;;;;;;;5031928;28;20542;-69
2023/05/11 05:46:23;;;;;;;47.00;17.10;;;;;;;;;;5029354;28;20272;-69
2023/05/11 05:48:48;;;;;;;52.65;17.45;;;;;;;;;;5018209;28;20364;-69
2023/05/11 05:51:13;;;;;;;45.13;18.00;;;;;;;;;;5031248;28;20100;-68
2023/05/11 05:53:38;;;;;;;56.60;19.40;;;;;;;;;;5017665;28;20030;-69
2023/05/11 05:56:04;;;;;;;42.75;17.67;;;;;;;;;;5031495;28;20255;-68
2023/05/11 05:58:29;;;;;;;51.45;19.05;;;;;;;;;;5031611;28;20048;-68
2023/05/11 06:00:55;;;;;;;48.65;18.50;;;;;;;;;;5030631;28;20040;-68
2023/05/11 06:03:20;;;;;;;41.15;17.17;;;;;;;;;;5031645;28;20014;-68
2023/05/11 06:05:45;;;;;;;55.33;18.50;;;;;;;;;;5031718;28;20021;-68
2023/05/11 06:08:11;;;;;;;40.13;17.77;;;;;;;;;;5032215;28;20018;-68
2023/05/11 06:10:36;;;;;;;39.90;17.80;;;;;;;;;;5031991;28;20020;-69
2023/05/11 06:13:01;;;;;;;51.05;17.95;;;;;;;;;;5032275;28;20807;-68
2023/05/11 06:15:26;;;;;;;45.07;17.97;;;;;;;;;;5030972;28;20021;-68
2023/05/11 06:17:51;;;;;;;37.88;16.83;;;;;;;;;;5027987;28;20784;-68
2023/05/11 06:20:17;;;;;;;43.63;17.93;;;;;;;;;;5034495;28;20017;-68
2023/05/11 06:22:42;;;;;;;43.40;17.93;;;;;;;;;;5029786;28;20326;-68
2023/05/11 06:25:07;;;;;;;53.80;20.53;;;;;;;;;;5031674;28;20332;-68
2023/05/11 06:27:32;;;;;;;58.65;20.02;;;;;;;;;;5031430;28;20625;-68
2023/05/11 06:29:57;;;;;;;57.67;22.10;;;;;;;;;;5031610;28;20048;-68
2023/05/11 06:32:23;;;;;;;60.63;21.90;;;;;;;;;;5031384;28;20026;-68
2023/05/11 06:34:48;;;;;;;51.75;21.88;;;;;;;;;;5030519;28;20021;-68
2023/05/11 06:37:19;;;;;;;57.07;22.10;;;;;;;;;;5028482;28;20013;-68
2023/05/11 06:39:44;;;;;;;51.65;22.13;;;;;;;;;;5030728;28;20637;-68
2023/05/11 06:42:09;;;;;;;58.42;22.90;;;;;;;;;;5031459;28;20021;-68
2023/05/11 06:44:35;;;;;;;52.00;22.03;;;;;;;;;;5031158;28;20037;-68
2023/05/11 06:47:00;;;;;;;52.05;22.33;;;;;;;;;;5031239;28;20314;-68
2023/05/11 06:49:25;;;;;;;49.40;21.38;;;;;;;;;;5026621;28;20026;-68
2023/05/11 06:51:50;;;;;;;49.50;20.17;;;;;;;;;;5025931;28;20032;-68
2023/05/11 06:54:15;;;;;;;55.08;22.25;;;;;;;;;;5031566;28;20256;-68
2023/05/11 06:56:41;;;;;;;55.70;21.27;;;;;;;;;;5031064;28;21224;-68
2023/05/11 06:59:06;;;;;;;55.90;22.80;;;;;;;;;;5031206;28;20021;-69
2023/05/11 07:01:31;;;;;;;57.03;22.85;;;;;;;;;;5030840;28;20390;-68
2023/05/11 07:03:56;;;;;;;53.47;22.02;;;;;;;;;;5030239;28;20025;-68
2023/05/11 07:06:21;;;;;;;52.23;21.27;;;;;;;;;;5030600;28;20020;-68
2023/05/11 07:08:47;;;;;;;47.20;23.63;;;;;;;;;;5030221;28;20021;-68
2023/05/11 07:11:14;;;;;;;99.22;29.35;;;;;;;;;;5030916;28;20340;-68
2023/05/11 07:13:40;;;;;;;44.55;19.92;;;;;;;;;;5029238;28;20033;-68
2023/05/11 07:16:05;;;;;;;39.55;18.73;;;;;;;;;;5030951;28;20025;-68
2023/05/11 07:18:30;;;;;;;42.45;19.00;;;;;;;;;;5028271;28;20036;-68
2023/05/11 07:20:55;;;;;;;36.67;18.23;;;;;;;;;;5030647;28;20276;-68
2023/05/11 07:23:20;;;;;;;34.35;18.75;;;;;;;;;;5026064;28;20017;-68
2023/05/11 07:25:46;;;;;;;34.57;17.53;;;;;;;;;;5028590;28;20025;-68
2023/05/11 07:28:11;;;;;;;34.10;17.90;;;;;;;;;;5030635;28;20248;-68
2023/05/11 07:30:36;;;;;;;34.15;17.58;;;;;;;;;;5030292;28;20264;-68
2023/05/11 07:33:02;;;;;;;33.47;16.63;;;;;;;;;;5030608;28;20024;-68
2023/05/11 07:35:27;;;;;;;30.15;16.83;;;;;;;;;;5030309;28;20705;-68
2023/05/11 07:37:52;;;;;;;27.00;16.20;;;;;;;;;;5028163;28;20463;-68
2023/05/11 07:40:17;;;;;;;30.83;15.07;;;;;;;;;;5030228;28;20140;-68
2023/05/11 07:42:42;;;;;;;28.75;15.00;;;;;;;;;;5030440;28;20268;-68
2023/05/11 07:45:08;;;;;;;29.38;16.40;;;;;;;;;;5030367;28;20040;-68
2023/05/11 07:47:33;;;;;;;29.00;15.10;;;;;;;;;;5030273;28;20030;-68
2023/05/11 07:49:58;;;;;;;31.07;15.53;;;;;;;;;;5030241;28;20493;-68
2023/05/11 07:52:23;;;;;;;23.30;13.57;;;;;;;;;;5028427;28;20287;-68
2023/05/11 07:54:49;;;;;;;23.40;13.10;;;;;;;;;;5030051;28;20057;-68
2023/05/11 07:57:14;;;;;;;23.33;13.20;;;;;;;;;;5030345;28;20056;-68
2023/05/11 07:59:39;;;;;;;24.50;12.23;;;;;;;;;;5030047;28;20037;-68
2023/05/11 08:02:05;;;;;;;24.58;12.48;;;;;;;;;;5030263;28;20013;-68
2023/05/11 08:04:31;;;;;;;32.03;15.30;;;;;;;;;;5030275;28;20017;-68
2023/05/11 08:06:57;;;;;;;29.52;13.63;;;;;;;;;;5023425;28;20032;-68
2023/05/11 08:09:22;;;;;;;32.97;16.08;;;;;;;;;;5030043;28;20064;-68
2023/05/11 08:11:48;;;;;;;34.77;17.77;;;;;;;;;;5030644;28;20051;-68
2023/05/11 08:14:13;;;;;;;32.78;18.27;;;;;;;;;;5030284;28;20256;-68
2023/05/11 08:16:38;;;;;;;35.70;18.97;;;;;;;;;;5029944;28;20072;-68
2023/05/11 08:19:04;;;;;;;32.77;18.03;;;;;;;;;;5030050;28;20264;-68
2023/05/11 08:21:29;;;;;;;34.70;17.60;;;;;;;;;;5032996;28;20370;-68
2023/05/11 08:23:54;;;;;;;37.33;16.97;;;;;;;;;;5033904;28;20466;-68
2023/05/11 08:26:20;;;;;;;35.77;18.43;;;;;;;;;;5033973;28;20351;-68
2023/05/11 08:28:45;;;;;;;35.75;17.65;;;;;;;;;;5033677;28;20022;-68
2023/05/11 08:31:13;;;;;;;37.08;17.55;;;;;;;;;;5034057;28;20028;-68
2023/05/11 08:33:38;;;;;;;34.05;18.02;;;;;;;;;;5033595;28;20040;-68
2023/05/11 08:36:03;;;;;;;31.33;15.53;;;;;;;;;;5029054;28;20025;-68
2023/05/11 08:38:28;;;;;;;34.53;16.73;;;;;;;;;;5033346;28;20091;-68
2023/05/11 08:40:53;;;;;;;23.83;14.13;;;;;;;;;;5033914;28;20096;-68
2023/05/11 08:43:19;;;;;;;35.83;16.30;;;;;;;;;;5033849;28;20717;-68
2023/05/11 08:45:47;;;;;;;28.27;14.18;;;;;;;;;;5033252;28;20253;-68
2023/05/11 08:48:14;;;;;;;26.17;13.77;;;;;;;;;;5033567;28;20022;-68
2023/05/11 08:50:39;;;;;;;33.05;16.35;;;;;;;;;;5031855;28;20025;-68
2023/05/11 08:53:05;;;;;;;27.08;14.23;;;;;;;;;;5033543;28;20022;-68
2023/05/11 08:55:31;;;;;;;26.75;14.25;;;;;;;;;;5031402;28;20430;-68
2023/05/11 08:57:57;;;;;;;24.90;13.98;;;;;;;;;;5031871;28;20029;-68
2023/05/11 09:00:23;;;;;;;26.70;14.35;;;;;;;;;;5033980;28;20021;-68
2023/05/11 09:02:48;;;;;;;27.30;13.90;;;;;;;;;;5037875;28;20048;-68
2023/05/11 09:05:13;;;;;;;21.15;12.90;;;;;;;;;;5029951;28;20045;-68
2023/05/11 09:07:40;;;;;;;25.42;14.38;;;;;;;;;;5033395;28;20047;-68
2023/05/11 09:10:06;;;;;;;25.15;15.02;;;;;;;;;;5033413;28;20028;-68
2023/05/11 09:12:31;;;;;;;24.33;13.93;;;;;;;;;;5033401;28;20017;-68
2023/05/11 09:14:57;;;;;;;26.90;14.70;;;;;;;;;;5032260;28;20028;-68
2023/05/11 09:17:24;;;;;;;25.20;12.63;;;;;;;;;;5032966;28;20284;-68
2023/05/11 09:19:59;;;;;;;22.83;12.73;;;;;;;;;;5031576;28;20272;-68
2023/05/11 09:22:25;;;;;;;24.20;12.20;;;;;;;;;;5033075;28;20552;-68
2023/05/11 09:24:51;;;;;;;20.42;11.95;;;;;;;;;;5032547;28;20033;-68
2023/05/11 09:27:16;;;;;;;22.83;11.60;;;;;;;;;;5023741;28;20342;-68
2023/05/11 09:29:42;;;;;;;20.95;11.80;;;;;;;;;;5032214;28;20013;-68
2023/05/11 09:32:07;;;;;;;23.17;12.57;;;;;;;;;;5036633;28;20041;-68
2023/05/11 09:34:32;;;;;;;20.63;12.30;;;;;;;;;;5030488;28;20284;-68
2023/05/11 09:36:57;;;;;;;19.48;11.70;;;;;;;;;;5032270;28;20057;-68
2023/05/11 09:39:33;;;;;;;23.23;12.38;;;;;;;;;;5032525;28;20088;-68
2023/05/11 09:42:18;;;;;;;19.65;12.02;;;;;;;;;;5032609;28;20057;-68
2023/05/11 09:44:43;;;;;;;23.20;11.25;;;;;;;;;;5032256;28;20096;-69
2023/05/11 09:47:18;;;;;;;21.48;12.20;;;;;;;;;;5031700;28;20109;-68
2023/05/11 09:49:44;;;;;;;22.55;12.98;;;;;;;;;;5031949;28;20059;-68
2023/05/11 09:52:13;;;;;;;24.25;12.55;;;;;;;;;;5032396;28;20029;-69
2023/05/11 09:54:42;;;;;;;23.60;11.73;;;;;;;;;;5032157;28;20017;-68
2023/05/11 09:57:21;;;;;;;25.97;13.33;;;;;;;;;;5032412;28;20025;-68
2023/05/11 09:59:46;;;;;;;17.33;10.30;;;;;;;;;;5030561;28;20018;-68
2023/05/11 10:02:18;;;;;;;21.33;10.60;;;;;;;;;;5022079;28;20563;-68
2023/05/11 10:04:43;;;;;;;18.85;10.85;;;;;;;;;;5031984;28;20014;-68
2023/05/11 10:07:08;;;;;;;21.10;10.93;;;;;;;;;;5032693;28;20101;-68
2023/05/11 10:09:34;;;;;;;17.85;10.48;;;;;;;;;;5032010;28;20268;-68
2023/05/11 10:11:59;;;;;;;17.35;9.27;;;;;;;;;;5032184;28;20048;-68
2023/05/11 10:14:26;;;;;;;14.80;9.48;;;;;;;;;;5032139;28;20017;-68
2023/05/11 10:16:51;;;;;;;16.80;9.95;;;;;;;;;;5030593;28;20040;-68
2023/05/11 10:19:17;;;;;;;20.88;9.77;;;;;;;;;;5031880;28;20025;-68
2023/05/11 10:21:42;;;;;;;21.30;11.07;;;;;;;;;;5031819;28;20041;-68
2023/05/11 10:24:08;;;;;;;21.55;10.55;;;;;;;;;;5031890;28;20029;-68
2023/05/11 10:26:35;;;;;;;18.73;10.13;;;;;;;;;;5031627;28;20352;-68
2023/05/11 10:29:00;;;;;;;24.17;12.88;;;;;;;;;;5031793;28;20022;-68
2023/05/11 10:31:25;;;;;;;18.90;10.93;;;;;;;;;;5030722;28;20025;-68
2023/05/11 10:33:51;;;;;;;19.23;11.68;;;;;;;;;;5031400;28;20033;-68
2023/05/11 10:36:21;;;;;;;19.77;11.90;;;;;;;;;;5031387;28;20017;-68
2023/05/11 10:38:47;;;;;;;19.27;11.48;;;;;;;;;;5030984;28;20029;-68
2023/05/11 10:41:25;;;;;;;21.97;13.23;;;;;;;;;;5031440;28;20028;-68
2023/05/11 10:43:51;;;;;;;20.20;11.23;;;;;;;;;;5029755;28;20276;-68
2023/05/11 10:46:36;;;;;;;20.05;11.57;;;;;;;;;;5027633;28;20057;-68
2023/05/11 10:49:10;;;;;;;19.98;10.70;;;;;;;;;;5031195;28;20026;-68
2023/05/11 10:51:44;;;;;;;19.83;11.82;;;;;;;;;;5031032;28;20030;-68
2023/05/11 10:54:26;;;;;;;21.85;10.73;;;;;;;;;;5031270;28;20021;-68
2023/05/11 10:56:51;;;;;;;20.08;11.68;;;;;;;;;;5026838;28;20017;-68
2023/05/11 10:59:35;;;;;;;17.05;10.38;;;;;;;;;;5031003;28;20509;-68
2023/05/11 11:02:02;;;;;;;22.67;9.70;;;;;;;;;;5031249;28;20025;-68
2023/05/11 11:04:48;;;;;;;24.40;11.48;;;;;;;;;;5031468;28;20051;-68
2023/05/11 11:07:17;;;;;;;21.52;11.57;;;;;;;;;;5030959;28;20037;-68
2023/05/11 11:09:49;;;;;;;21.40;10.98;;;;;;;;;;5030728;28;20014;-68
2023/05/11 11:12:14;;;;;;;21.13;11.02;;;;;;;;;;5029168;28;20028;-68
2023/05/11 11:14:53;;;;;;;22.52;10.15;;;;;;;;;;5030592;28;20025;-68
2023/05/11 11:17:22;;;;;;;20.70;10.25;;;;;;;;;;5030909;28;20025;-68
2023/05/11 11:19:48;;;;;;;25.98;12.63;;;;;;;;;;5030508;28;20025;-68
2023/05/11 11:22:31;;;;;;;27.60;13.53;;;;;;;;;;5030639;28;20022;-68
2023/05/11 11:24:56;;;;;;;24.85;12.35;;;;;;;;;;5030615;28;20211;-68
2023/05/11 11:27:42;;;;;;;33.33;12.83;;;;;;;;;;5029920;28;20402;-68
2023/05/11 11:30:17;;;;;;;30.48;14.85;;;;;;;;;;5023306;28;20276;-68
2023/05/11 11:32:42;;;;;;;26.88;12.60;;;;;;;;;;5030327;28;20032;-68
2023/05/11 11:35:26;;;;;;;26.52;13.43;;;;;;;;;;5030497;28;20383;-68
2023/05/11 11:38:01;;;;;;;25.27;11.70;;;;;;;;;;5030254;28;20021;-68
2023/05/11 11:40:40;;;;;;;23.02;11.65;;;;;;;;;;5023924;28;20009;-69
2023/05/11 11:43:12;;;;;;;32.63;12.38;;;;;;;;;;5024705;28;20025;-68
2023/05/11 11:45:38;;;;;;;22.52;11.43;;;;;;;;;;5030317;28;20044;-68
2023/05/11 11:48:12;;;;;;;28.73;12.32;;;;;;;;;;5030313;28;20033;-68
2023/05/11 11:50:38;;;;;;;28.17;14.02;;;;;;;;;;5030194;28;20453;-68
2023/05/11 11:53:03;;;;;;;36.05;14.35;;;;;;;;;;5030240;28;20021;-68
2023/05/11 11:55:44;;;;;;;27.27;15.03;;;;;;;;;;5023032;28;20372;-68
2023/05/11 11:58:10;;;;;;;31.25;13.45;;;;;;;;;;5025214;28;20716;-68
2023/05/11 12:00:35;;;;;;;25.27;12.98;;;;;;;;;;5030349;28;20109;-68
2023/05/11 12:03:01;;;;;;;27.80;12.32;;;;;;;;;;5030529;28;20025;-68
2023/05/11 12:05:28;;;;;;;21.35;11.32;;;;;;;;;;5030268;28;20014;-68
2023/05/11 12:07:53;;;;;;;30.00;12.60;;;;;;;;;;5030012;28;20017;-68
2023/05/11 12:10:21;;;;;;;22.50;10.95;;;;;;;;;;5028172;28;20024;-68
2023/05/11 12:12:47;;;;;;;22.23;12.00;;;;;;;;;;5029585;28;20275;-68
2023/05/11 12:15:26;;;;;;;23.50;11.48;;;;;;;;;;5030051;28;20494;-68
2023/05/11 12:17:51;;;;;;;22.63;11.77;;;;;;;;;;5024378;28;20024;-68
2023/05/11 12:20:17;;;;;;;26.43;13.93;;;;;;;;;;5029913;28;20022;-68
2023/05/11 12:22:43;;;;;;;23.15;13.63;;;;;;;;;;5029599;28;20021;-68
2023/05/11 12:25:11;;;;;;;31.38;14.25;;;;;;;;;;5029146;28;20087;-68
2023/05/11 12:27:44;;;;;;;22.17;12.52;;;;;;;;;;5029557;28;20021;-68
2023/05/11 12:30:17;;;;;;;25.33;13.23;;;;;;;;;;5029838;28;20028;-69
2023/05/11 12:32:42;;;;;;;28.73;12.85;;;;;;;;;;5028447;28;20032;-68
2023/05/11 12:35:08;;;;;;;34.60;12.97;;;;;;;;;;5029736;28;20406;-68
2023/05/11 12:37:33;;;;;;;23.80;12.73;;;;;;;;;;5029853;28;20076;-68
2023/05/11 12:39:58;;;;;;;28.77;15.10;;;;;;;;;;5023712;28;20111;-68
2023/05/11 12:42:24;;;;;;;29.07;13.47;;;;;;;;;;5029744;28;20032;-68
2023/05/11 12:44:49;;;;;;;27.35;14.85;;;;;;;;;;5029432;28;20279;-68
2023/05/11 12:47:15;;;;;;;25.77;13.57;;;;;;;;;;5030160;28;20386;-68
2023/05/11 12:49:41;;;;;;;25.55;13.85;;;;;;;;;;5029593;28;20112;-68
2023/05/11 12:52:07;;;;;;;32.17;14.15;;;;;;;;;;5029719;28;20041;-68
2023/05/11 12:54:37;;;;;;;29.85;15.45;;;;;;;;;;5028885;28;20057;-68
2023/05/11 12:57:03;;;;;;;30.67;15.90;;;;;;;;;;5024177;28;20025;-68
2023/05/11 12:59:36;;;;;;;30.83;14.65;;;;;;;;;;5029680;28;20017;-68
2023/05/11 13:02:12;;;;;;;28.20;13.70;;;;;;;;;;5024257;28;20457;-69
2023/05/11 13:04:38;;;;;;;32.17;12.90;;;;;;;;;;5029524;28;20092;-68
2023/05/11 13:07:04;;;;;;;33.53;14.02;;;;;;;;;;5031171;28;20029;-68
2023/05/11 13:09:29;;;;;;;36.40;13.77;;;;;;;;;;5033207;28;20047;-68
2023/05/11 13:12:07;;;;;;;21.17;13.18;;;;;;;;;;5032960;28;20025;-68
2023/05/11 13:14:32;;;;;;;30.73;13.35;;;;;;;;;;5032262;28;20026;-68
2023/05/11 13:16:57;;;;;;;30.90;13.43;;;;;;;;;;5032573;28;20361;-68
2023/05/11 13:19:27;;;;;;;34.20;13.20;;;;;;;;;;5032634;28;20657;-68
2023/05/11 13:21:53;;;;;;;26.80;13.25;;;;;;;;;;5032766;28;20314;-68
2023/05/11 13:24:18;;;;;;;25.58;11.18;;;;;;;;;;5033033;28;20017;-68
2023/05/11 13:26:43;;;;;;;25.40;12.25;;;;;;;;;;5028547;28;20014;-68
2023/05/11 13:29:09;;;;;;;36.20;13.40;;;;;;;;;;5030005;28;20040;-68
2023/05/11 13:31:40;;;;;;;26.20;14.07;;;;;;;;;;5031004;28;20010;-68
2023/05/11 13:34:06;;;;;;;33.03;14.93;;;;;;;;;;5023854;28;20017;-68
2023/05/11 13:36:31;;;;;;;36.50;14.43;;;;;;;;;;5032487;28;20022;-68
2023/05/11 13:38:56;;;;;;;33.70;14.57;;;;;;;;;;5032238;28;20025;-68
2023/05/11 13:41:22;;;;;;;31.43;14.90;;;;;;;;;;5031779;28;20026;-68
2023/05/11 13:43:49;;;;;;;34.72;14.45;;;;;;;;;;5031934;28;20241;-68
2023/05/11 13:46:14;;;;;;;29.83;14.48;;;;;;;;;;5032673;28;20192;-68
2023/05/11 13:48:40;;;;;;;31.43;14.33;;;;;;;;;;5033261;28;21301;-68
2023/05/11 13:51:05;;;;;;;29.35;13.27;;;;;;;;;;5030456;28;20283;-68
2023/05/11 13:53:30;;;;;;;36.20;14.70;;;;;;;;;;5032313;28;20025;-68
2023/05/11 13:55:56;;;;;;;27.93;13.20;;;;;;;;;;5032004;28;20071;-68
2023/05/11 13:58:21;;;;;;;34.53;16.23;;;;;;;;;;5032318;28;20803;-69
2023/05/11 14:00:47;;;;;;;31.13;14.98;;;;;;;;;;5032087;28;20028;-68
2023/05/11 14:03:12;;;;;;;26.20;13.02;;;;;;;;;;5029179;28;20434;-68
2023/05/11 14:05:37;;;;;;;33.87;13.70;;;;;;;;;;5032218;28;20280;-68
2023/05/11 14:08:03;;;;;;;28.80;13.23;;;;;;;;;;5032025;28;20259;-68
2023/05/11 14:10:28;;;;;;;36.45;13.35;;;;;;;;;;5027190;28;20034;-68
2023/05/11 14:12:53;;;;;;;28.87;12.90;;;;;;;;;;5031639;28;20336;-68
2023/05/11 14:15:19;;;;;;;31.07;13.93;;;;;;;;;;5031982;28;20041;-68
2023/05/11 14:17:44;;;;;;;28.92;12.23;;;;;;;;;;5031479;28;20276;-69
2023/05/11 14:20:12;;;;;;;27.45;12.80;;;;;;;;;;5031455;28;20067;-69